Onde está Santarém, Santarem en Portugal?

Santarém está situado na região Santarem em Portugal!

Buscar o nome de uma cidade:

Santanini, Santuit Pond, Santa Catarina, Santana, Santa María Del Darién

Aqui você vai encontrar a localização de Santarém em um mapa.
Para ver como ele atualmente parece, abaixo estão algumas fotos da região, com webcams online.
Você também pode encontrar a distância para as principais cidades da região e de cidades do resto do Portugal.

3 lugares nomeadas Santarém na Portugal.

Todos os lugares do mundo chamado .

new

Onde está Santarém no mapa?


Webcams perto Santarém

Vasco Carão > South: Garrocheira, Benavente - Airport.


Vasco Carão > South: Garrocheira, Benavente - Airport - Dia
Actual
Vasco Carão > South: Garrocheira, Benavente - Airport - Actual

Benavente > North-East: AIrport, METAR: BENAV 180005Z 36004KT 17/14 Q1015.


Benavente > North-East: AIrport, METAR: BENAV 180005Z 36004KT 17/14 Q1015 - Dia
Actual
Benavente > North-East: AIrport, METAR: BENAV 180005Z 36004KT 17/14 Q1015 - Actual

Caldas da Rainha.


Caldas da Rainha - Dia
Actual
Caldas da Rainha - Actual

Webcams provided by webcams.travel

Distâncias

Onde está Santarém em relação a outros lugares?

Top 10 cidades em Santarem e distância de Santarém.

Cidade#Populaçãokmmilhas
Santarém12938500
Entroncamento2198873220
Tomar3191684729
Torres Novas4145263119
Samora Correia5141543723
Abrantes6136464830
Ourém7127294729
Rio Maior8120642415
Fátima9117984327
Almeirim101155664

Top 10 cidades em Portugal e distância de Santarém.

Cidade # Populaçãokmmilhas
Lisbon15177986943
Porto2249630212132
Amadora31788567144
Braga4121393259161
Setúbal51171098050
Coimbra610658011169
Queluz71033987245
Funchal8980411041647
Vila Nova de Gaia970810211131
Loures10662306138